Terminal Aerodrome Forecast
Issued by NWS

Home | Current Version | Previous Version | Graphics & Text | Print | Product List | Glossary On
Versions: 1 2 3 4 5 6 7 8 9 10 11 12
363
FTUS43 KUNR 300520
TAFGCC
TAF
KGCC 300520Z 3006/0106 21016KT P6SM BKN150
     FM301700 26010KT P6SM SCT150
     FM302200 33010KT P6SM SCT150=

USA.gov is the U.S. government's official web portal to all federal, state and local government web resources and services.